Airfield :
LOGIN :

Register | Disclaimer

   EN    FR    IT 

 










Legend :    VFR   Marginal VFR   IFR   Intensive IFR   Very Intensive IFR
Visi :
Ceiling :
>= 8 km
>= 3000ft
5 to 8 km
1000 to 3000 ft
1500m to 5 km
500 to 1000 ft
800 to 1500m
200 to 500 ft
< 800m
< 200 ft
Symbols :   Thunderstorms  Fog  Heavy snow  Heavy precipitations  Wind > 20 kt
SIGMETs :     Misc.  Thunderstorms  Icing  Turbulence  Mountain Waves  Volcanic Ashes






- Airport Elevation : 290 ft
- IATA code : LAI


LFRO - Lannion

CURRENT METAR :
  • 171430Z AUTO 03005KT 340V110 9999 SCT023/// BKN030/// BKN038/// ///TCU 10/06 Q1010

EXPIRED METARs :
  • 171400Z AUTO 04003KT 320V090 9999 BKN024/// BKN035/// BKN056/// ///TCU 10/06 Q1010
  • 171330Z AUTO 03003KT 320V110 CAVOK 10/06 Q1010
  • 171300Z AUTO 05003KT 340V090 9999 FEW020/// SCT043/// OVC058/// ///TCU 09/06 Q1010
  • 171230Z AUTO 36004G15KT 310V090 9999 SCT027/// BKN045/// OVC060/// ///TCU 10/05 Q1010
  • 171200Z AUTO VRB02KT 9999 ///TCU 10/06 Q1010

Expired Forecast.



MET'MAP, your aeronautical weather chart ! - Copyright ORBIFLY December 2007 - Disclaimer

ORBIFLY MET'MAP TEAM :

Programming & Development : Alexandra Zaïnal
Concept & Development : Baudouin d'Aumeries
Co-Development & Prog : Marc-Olivier Méhu
Technical & hardware support : Manuel Goepfert

Contact : metmap@orbifly.com




SOURCES & CREDITS :

   NOAA